This is the latest recevied weather packets stored in our database for station/object KG7KID-5. If no packets are shown the sender has not sent any weather packets the latest 1 day(s).
| Time | Temp. | Humidity | Pressure | Rain* | Wind** | Luminosity | Snow |
|---|---|---|---|---|---|---|---|
| 1778019213 | 18.89° C | 30% | 923.8 hPa | 0 mm | 0 m/s | - | - |
| 1778019068 | 18.89° C | 30% | 923.8 hPa | 0 mm | 0 m/s | - | - |
| 1778018885 | 18.33° C | 32% | 924.1 hPa | 0 mm | 0 m/s | - | - |
| 1778018768 | 18.33° C | 32% | 924.1 hPa | 0 mm | 0 m/s | - | - |
| 1778018535 | 18.33° C | 36% | 924.1 hPa | 0 mm | 0 m/s | - | - |
| 1778018467 | 18.33° C | 36% | 924.1 hPa | 0 mm | 0 m/s | - | - |
| 1778018168 | 18.33° C | 34% | 924.1 hPa | 0 mm | 0 m/s | - | - |
| 1778017868 | 18.33° C | 37% | 924.3 hPa | 0 mm | 0 m/s | - | - |
| 1778017268 | 20° C | 31% | 924.3 hPa | 0 mm | 0 m/s | - | - |
| 1778016727 | 20° C | 30% | 924.1 hPa | 0 mm | 0 m/s | - | - |
| 1778016668 | 20° C | 30% | 924.1 hPa | 0 mm | 0 m/s | - | - |
| 1778016368 | 20.56° C | 30% | 924.2 hPa | 0 mm | 0 m/s | - | - |
| 1778015768 | 21.11° C | 28% | 924.2 hPa | 0 mm | 0 m/s | - | - |
| 1778015168 | 21.11° C | 29% | 924.3 hPa | 0 mm | 0 m/s | - | - |
| 1778014869 | 21.67° C | 31% | 924.4 hPa | 0 mm | 0 m/s | - | - |
| 1778014268 | 21.67° C | 29% | 924.5 hPa | 0 mm | 0 m/s | - | - |
| 1778013668 | 21.67° C | 30% | 924.2 hPa | 0 mm | 0 m/s | - | - |
| 1778013068 | 21.67° C | 27% | 924.4 hPa | 0 mm | 0 m/s | - | - |
| 1778012768 | 21.67° C | 27% | 924.4 hPa | 0 mm | 0 m/s | - | - |
| 1778011130 | 21.67° C | 30% | 924.5 hPa | 0 mm | 0 m/s | - | - |
| 1778010968 | 21.67° C | 30% | 924.5 hPa | 0 mm | 0 m/s | - | - |
| 1778009613 | 21.67° C | 29% | 924.7 hPa | 0 mm | 0 m/s | - | - |
| 1778009462 | 21.67° C | 29% | 924.7 hPa | 0 mm | 0 m/s | - | - |
| 1778009162 | 21.67° C | 29% | 924.7 hPa | 0 mm | 0 m/s | - | - |
| 1778006274 | 20° C | 35% | 925.2 hPa | 0 mm | 0 m/s | - | - |
* Rain latest hour (hover to see other rain measurements)
** Current wind speed in m/s (hover to see current wind gust speed)